sensor_id;sensor_type;location;lat;lon;timestamp;pressure;altitude;pressure_sealevel;temperature;humidity
54022;BME280;39936;51.058;17.220;2023-09-08T00:00:53;102481.69;;;12.59;100.00
54022;BME280;39936;51.058;17.220;2023-09-08T00:04:39;102481.30;;;12.63;100.00
54022;BME280;39936;51.058;17.220;2023-09-08T00:07:52;102480.62;;;12.63;100.00
54022;BME280;39936;51.058;17.220;2023-09-08T00:11:13;102478.84;;;12.54;100.00
54022;BME280;39936;51.058;17.220;2023-09-08T00:15:16;102468.84;;;12.41;100.00
54022;BME280;39936;51.058;17.220;2023-09-08T00:18:30;102478.77;;;12.38;100.00
54022;BME280;39936;51.058;17.220;2023-09-08T00:21:44;102477.50;;;12.32;100.00
54022;BME280;39936;51.058;17.220;2023-09-08T00:25:01;102469.85;;;12.35;100.00
54022;BME280;39936;51.058;17.220;2023-09-08T00:28:27;102468.05;;;12.38;100.00
54022;BME280;39936;51.058;17.220;2023-09-08T00:31:45;102472.03;;;12.49;100.00
54022;BME280;39936;51.058;17.220;2023-09-08T00:34:59;102469.69;;;12.48;100.00
54022;BME280;39936;51.058;17.220;2023-09-08T00:38:24;102463.16;;;12.35;100.00
54022;BME280;39936;51.058;17.220;2023-09-08T00:41:40;102464.34;;;12.33;100.00
54022;BME280;39936;51.058;17.220;2023-09-08T00:44:57;102464.19;;;12.33;100.00
54022;BME280;39936;51.058;17.220;2023-09-08T00:48:19;102463.24;;;12.26;100.00
54022;BME280;39936;51.058;17.220;2023-09-08T00:52:25;102464.72;;;12.15;100.00
54022;BME280;39936;51.058;17.220;2023-09-08T00:55:50;102466.25;;;12.08;100.00
54022;BME280;39936;51.058;17.220;2023-09-08T00:59:11;102458.85;;;12.00;100.00
54022;BME280;39936;51.058;17.220;2023-09-08T01:02:34;102468.51;;;12.01;100.00
54022;BME280;39936;51.058;17.220;2023-09-08T01:05:52;102471.50;;;11.98;100.00
54022;BME280;39936;51.058;17.220;2023-09-08T01:09:14;102468.71;;;11.95;100.00
54022;BME280;39936;51.058;17.220;2023-09-08T01:13:16;102464.77;;;11.95;100.00
54022;BME280;39936;51.058;17.220;2023-09-08T01:16:47;102457.42;;;11.93;100.00
54022;BME280;39936;51.058;17.220;2023-09-08T01:21:03;102451.21;;;11.89;100.00
54022;BME280;39936;51.058;17.220;2023-09-08T01:28:21;102447.81;;;11.70;100.00
54022;BME280;39936;51.058;17.220;2023-09-08T01:31:57;102445.16;;;11.48;100.00
54022;BME280;39936;51.058;17.220;2023-09-08T01:35:12;102444.36;;;11.42;100.00
54022;BME280;39936;51.058;17.220;2023-09-08T01:38:30;102446.62;;;11.39;100.00
54022;BME280;39936;51.058;17.220;2023-09-08T01:41:49;102443.49;;;11.35;100.00
54022;BME280;39936;51.058;17.220;2023-09-08T01:45:15;102438.24;;;11.30;100.00
54022;BME280;39936;51.058;17.220;2023-09-08T01:48:32;102445.46;;;11.26;100.00
54022;BME280;39936;51.058;17.220;2023-09-08T01:52:04;102447.41;;;11.23;100.00
54022;BME280;39936;51.058;17.220;2023-09-08T01:56:08;102438.10;;;11.19;100.00
54022;BME280;39936;51.058;17.220;2023-09-08T01:59:24;102428.84;;;11.11;100.00
54022;BME280;39936;51.058;17.220;2023-09-08T02:02:55;102446.33;;;11.21;100.00
54022;BME280;39936;51.058;17.220;2023-09-08T02:07:01;102442.88;;;11.23;100.00
54022;BME280;39936;51.058;17.220;2023-09-08T02:10:30;102442.88;;;11.29;100.00
54022;BME280;39936;51.058;17.220;2023-09-08T02:21:31;102442.17;;;11.51;100.00
54022;BME280;39936;51.058;17.220;2023-09-08T02:24:48;102441.37;;;11.55;100.00
54022;BME280;39936;51.058;17.220;2023-09-08T02:28:08;102421.30;;;11.41;100.00
54022;BME280;39936;51.058;17.220;2023-09-08T02:31:55;102413.83;;;11.30;100.00
54022;BME280;39936;51.058;17.220;2023-09-08T02:35:11;102438.23;;;11.34;100.00
54022;BME280;39936;51.058;17.220;2023-09-08T02:38:29;102407.79;;;11.08;100.00
54022;BME280;39936;51.058;17.220;2023-09-08T02:42:12;102435.85;;;11.20;100.00
54022;BME280;39936;51.058;17.220;2023-09-08T02:45:32;102434.62;;;11.12;100.00
54022;BME280;39936;51.058;17.220;2023-09-08T02:48:50;102437.11;;;11.02;100.00
54022;BME280;39936;51.058;17.220;2023-09-08T02:55:57;102440.43;;;10.74;100.00
54022;BME280;39936;51.058;17.220;2023-09-08T02:59:10;102441.23;;;10.57;100.00
54022;BME280;39936;51.058;17.220;2023-09-08T03:03:12;102403.55;;;10.32;100.00
54022;BME280;39936;51.058;17.220;2023-09-08T03:06:50;102430.31;;;10.51;100.00
54022;BME280;39936;51.058;17.220;2023-09-08T03:10:09;102430.26;;;10.52;100.00
54022;BME280;39936;51.058;17.220;2023-09-08T03:13:35;102433.64;;;10.55;100.00
54022;BME280;39936;51.058;17.220;2023-09-08T03:16:51;102434.03;;;10.52;100.00
54022;BME280;39936;51.058;17.220;2023-09-08T03:23:56;102430.52;;;10.48;100.00
54022;BME280;39936;51.058;17.220;2023-09-08T03:27:12;102437.74;;;10.44;100.00
54022;BME280;39936;51.058;17.220;2023-09-08T03:30:34;102445.29;;;10.31;100.00
54022;BME280;39936;51.058;17.220;2023-09-08T03:37:57;102444.07;;;10.22;100.00
54022;BME280;39936;51.058;17.220;2023-09-08T03:41:25;102442.70;;;10.11;100.00
54022;BME280;39936;51.058;17.220;2023-09-08T03:44:52;102446.20;;;10.07;100.00
54022;BME280;39936;51.058;17.220;2023-09-08T03:48:31;102446.16;;;10.03;100.00
54022;BME280;39936;51.058;17.220;2023-09-08T03:52:33;102445.66;;;9.96;100.00
54022;BME280;39936;51.058;17.220;2023-09-08T03:55:54;102440.84;;;9.86;100.00
54022;BME280;39936;51.058;17.220;2023-09-08T03:59:27;102439.82;;;9.78;100.00
54022;BME280;39936;51.058;17.220;2023-09-08T04:02:44;102437.68;;;9.80;100.00
54022;BME280;39936;51.058;17.220;2023-09-08T04:06:12;102435.37;;;10.07;100.00
54022;BME280;39936;51.058;17.220;2023-09-08T04:10:15;102434.94;;;10.03;100.00
54022;BME280;39936;51.058;17.220;2023-09-08T04:13:46;102434.81;;;10.18;100.00
54022;BME280;39936;51.058;17.220;2023-09-08T04:17:05;102430.84;;;10.23;100.00
54022;BME280;39936;51.058;17.220;2023-09-08T04:20:21;102404.84;;;9.88;100.00
54022;BME280;39936;51.058;17.220;2023-09-08T04:23:39;102410.89;;;9.96;100.00
54022;BME280;39936;51.058;17.220;2023-09-08T04:26:56;102436.01;;;10.25;100.00
54022;BME280;39936;51.058;17.220;2023-09-08T04:30:19;102431.59;;;10.29;100.00
54022;BME280;39936;51.058;17.220;2023-09-08T04:33:35;102434.51;;;10.37;100.00
54022;BME280;39936;51.058;17.220;2023-09-08T04:36:57;102431.34;;;10.41;100.00
54022;BME280;39936;51.058;17.220;2023-09-08T04:40:16;102430.58;;;10.44;100.00
54022;BME280;39936;51.058;17.220;2023-09-08T04:43:37;102436.37;;;10.28;100.00
54022;BME280;39936;51.058;17.220;2023-09-08T04:46:48;102436.85;;;10.29;100.00
54022;BME280;39936;51.058;17.220;2023-09-08T04:50:10;102430.43;;;10.33;100.00
54022;BME280;39936;51.058;17.220;2023-09-08T04:53:27;102432.35;;;10.57;100.00
54022;BME280;39936;51.058;17.220;2023-09-08T04:56:42;102428.86;;;10.86;100.00
54022;BME280;39936;51.058;17.220;2023-09-08T05:00:09;102422.00;;;11.18;100.00
54022;BME280;39936;51.058;17.220;2023-09-08T05:03:24;102413.99;;;11.39;100.00
54022;BME280;39936;51.058;17.220;2023-09-08T05:07:15;102406.77;;;11.75;100.00
54022;BME280;39936;51.058;17.220;2023-09-08T05:18:41;102407.45;;;12.47;100.00
54022;BME280;39936;51.058;17.220;2023-09-08T05:22:06;102406.91;;;12.69;100.00
54022;BME280;39936;51.058;17.220;2023-09-08T05:25:59;102408.74;;;12.86;100.00
54022;BME280;39936;51.058;17.220;2023-09-08T05:33:17;102407.66;;;13.17;100.00
54022;BME280;39936;51.058;17.220;2023-09-08T05:36:38;102407.77;;;13.33;100.00
54022;BME280;39936;51.058;17.220;2023-09-08T05:40:34;102404.28;;;13.46;100.00
54022;BME280;39936;51.058;17.220;2023-09-08T05:44:01;102404.08;;;13.70;100.00
54022;BME280;39936;51.058;17.220;2023-09-08T05:47:18;102405.23;;;13.98;100.00
54022;BME280;39936;51.058;17.220;2023-09-08T05:51:07;102405.40;;;14.22;100.00
54022;BME280;39936;51.058;17.220;2023-09-08T05:54:25;102405.14;;;14.42;100.00
54022;BME280;39936;51.058;17.220;2023-09-08T05:57:54;102405.38;;;14.67;100.00
54022;BME280;39936;51.058;17.220;2023-09-08T06:01:11;102408.61;;;14.85;100.00
54022;BME280;39936;51.058;17.220;2023-09-08T06:04:30;102399.78;;;15.05;100.00
54022;BME280;39936;51.058;17.220;2023-09-08T06:08:04;102375.62;;;15.14;100.00
54022;BME280;39936;51.058;17.220;2023-09-08T06:11:17;102391.61;;;15.74;100.00
54022;BME280;39936;51.058;17.220;2023-09-08T06:14:33;102395.23;;;16.19;100.00
54022;BME280;39936;51.058;17.220;2023-09-08T06:18:16;102390.15;;;16.16;100.00
54022;BME280;39936;51.058;17.220;2023-09-08T06:21:36;102396.43;;;16.08;100.00
54022;BME280;39936;51.058;17.220;2023-09-08T06:24:54;102395.19;;;16.27;100.00
54022;BME280;39936;51.058;17.220;2023-09-08T06:28:13;102373.31;;;16.29;100.00
54022;BME280;39936;51.058;17.220;2023-09-08T06:31:30;102385.24;;;16.65;100.00
54022;BME280;39936;51.058;17.220;2023-09-08T06:35:12;102357.94;;;16.88;100.00
54022;BME280;39936;51.058;17.220;2023-09-08T06:39:07;102385.62;;;17.02;100.00
54022;BME280;39936;51.058;17.220;2023-09-08T06:42:46;102383.09;;;17.24;100.00
54022;BME280;39936;51.058;17.220;2023-09-08T06:46:04;102361.32;;;17.46;100.00
54022;BME280;39936;51.058;17.220;2023-09-08T06:50:03;102393.13;;;17.78;100.00
54022;BME280;39936;51.058;17.220;2023-09-08T06:53:29;102395.77;;;17.95;99.40
54022;BME280;39936;51.058;17.220;2023-09-08T06:56:59;102393.67;;;18.08;99.04
54022;BME280;39936;51.058;17.220;2023-09-08T07:04:35;102388.88;;;18.68;99.04
54022;BME280;39936;51.058;17.220;2023-09-08T07:07:51;102385.70;;;18.61;91.70
54022;BME280;39936;51.058;17.220;2023-09-08T07:11:41;102388.90;;;18.34;91.92
54022;BME280;39936;51.058;17.220;2023-09-08T07:15:09;102395.34;;;18.19;93.86
54022;BME280;39936;51.058;17.220;2023-09-08T07:18:46;102395.27;;;18.51;99.12
54022;BME280;39936;51.058;17.220;2023-09-08T07:22:01;102359.62;;;18.80;98.11
54022;BME280;39936;51.058;17.220;2023-09-08T07:25:18;102394.11;;;19.24;92.73
54022;BME280;39936;51.058;17.220;2023-09-08T07:28:48;102386.47;;;19.21;88.14
54022;BME280;39936;51.058;17.220;2023-09-08T07:32:14;102365.26;;;18.94;87.40
54022;BME280;39936;51.058;17.220;2023-09-08T07:39:21;102368.61;;;19.04;90.99
54022;BME280;39936;51.058;17.220;2023-09-08T07:42:47;102382.73;;;19.45;90.34
54022;BME280;39936;51.058;17.220;2023-09-08T07:46:02;102385.86;;;19.61;87.35
54022;BME280;39936;51.058;17.220;2023-09-08T07:49:21;102384.40;;;19.87;88.84
54022;BME280;39936;51.058;17.220;2023-09-08T07:52:40;102391.65;;;19.73;83.87
54022;BME280;39936;51.058;17.220;2023-09-08T07:55:57;102389.84;;;19.58;85.15
54022;BME280;39936;51.058;17.220;2023-09-08T07:59:28;102389.73;;;19.92;88.05
54022;BME280;39936;51.058;17.220;2023-09-08T08:03:10;102384.81;;;20.23;84.85
54022;BME280;39936;51.058;17.220;2023-09-08T08:10:13;102379.55;;;20.16;82.16
54022;BME280;39936;51.058;17.220;2023-09-08T08:13:38;102381.45;;;20.04;81.30
54022;BME280;39936;51.058;17.220;2023-09-08T08:16:52;102375.59;;;19.94;83.25
54022;BME280;39936;51.058;17.220;2023-09-08T08:20:33;102377.75;;;19.94;83.96
54022;BME280;39936;51.058;17.220;2023-09-08T08:23:59;102346.04;;;19.99;84.63
54022;BME280;39936;51.058;17.220;2023-09-08T08:27:14;102369.05;;;20.35;81.09
54022;BME280;39936;51.058;17.220;2023-09-08T08:30:30;102373.88;;;20.65;84.15
54022;BME280;39936;51.058;17.220;2023-09-08T08:33:52;102372.74;;;20.61;78.95
54022;BME280;39936;51.058;17.220;2023-09-08T08:37:21;102367.93;;;20.61;80.33
54022;BME280;39936;51.058;17.220;2023-09-08T08:40:40;102362.07;;;20.76;79.60
54022;BME280;39936;51.058;17.220;2023-09-08T08:43:56;102360.58;;;20.76;78.51
54022;BME280;39936;51.058;17.220;2023-09-08T08:47:10;102355.97;;;20.92;79.22
54022;BME280;39936;51.058;17.220;2023-09-08T08:51:16;102352.82;;;21.28;80.46
54022;BME280;39936;51.058;17.220;2023-09-08T08:54:46;102354.43;;;21.50;77.26
54022;BME280;39936;51.058;17.220;2023-09-08T08:58:04;102353.78;;;21.59;75.99
54022;BME280;39936;51.058;17.220;2023-09-08T09:01:26;102347.39;;;21.78;75.46
54022;BME280;39936;51.058;17.220;2023-09-08T09:04:54;102346.20;;;21.66;73.73
54022;BME280;39936;51.058;17.220;2023-09-08T09:08:16;102342.30;;;21.88;76.26
54022;BME280;39936;51.058;17.220;2023-09-08T09:11:36;102317.20;;;22.12;76.81
54022;BME280;39936;51.058;17.220;2023-09-08T09:14:54;102334.52;;;22.52;74.75
54022;BME280;39936;51.058;17.220;2023-09-08T09:18:09;102324.76;;;22.68;72.81
54022;BME280;39936;51.058;17.220;2023-09-08T09:22:13;102329.73;;;22.39;69.53
54022;BME280;39936;51.058;17.220;2023-09-08T09:25:41;102326.47;;;22.27;72.14
54022;BME280;39936;51.058;17.220;2023-09-08T09:29:27;102320.07;;;22.59;70.11
54022;BME280;39936;51.058;17.220;2023-09-08T09:32:46;102317.89;;;22.44;69.68
54022;BME280;39936;51.058;17.220;2023-09-08T09:36:22;102316.73;;;22.52;69.30
54022;BME280;39936;51.058;17.220;2023-09-08T09:39:56;102314.41;;;22.69;68.94
54022;BME280;39936;51.058;17.220;2023-09-08T09:43:31;102309.91;;;22.87;69.85
54022;BME280;39936;51.058;17.220;2023-09-08T09:47:14;102301.16;;;23.34;72.10
54022;BME280;39936;51.058;17.220;2023-09-08T09:51:29;102295.67;;;23.85;69.37
54022;BME280;39936;51.058;17.220;2023-09-08T09:55:01;102291.52;;;24.14;67.91
54022;BME280;39936;51.058;17.220;2023-09-08T09:58:28;102264.95;;;24.02;66.28
54022;BME280;39936;51.058;17.220;2023-09-08T10:02:26;102286.71;;;24.35;66.10
54022;BME280;39936;51.058;17.220;2023-09-08T10:05:57;102275.74;;;24.42;65.56
54022;BME280;39936;51.058;17.220;2023-09-08T10:09:48;102280.27;;;24.45;63.69
54022;BME280;39936;51.058;17.220;2023-09-08T10:13:27;102277.10;;;24.12;62.92
54022;BME280;39936;51.058;17.220;2023-09-08T10:16:44;102276.79;;;23.93;64.96
54022;BME280;39936;51.058;17.220;2023-09-08T10:20:35;102272.98;;;23.96;63.55
54022;BME280;39936;51.058;17.220;2023-09-08T10:27:51;102270.94;;;24.38;63.08
54022;BME280;39936;51.058;17.220;2023-09-08T10:31:15;102274.61;;;24.20;62.37
54022;BME280;39936;51.058;17.220;2023-09-08T10:34:44;102271.23;;;24.23;63.28
54022;BME280;39936;51.058;17.220;2023-09-08T10:41:51;102261.61;;;24.41;60.38
54022;BME280;39936;51.058;17.220;2023-09-08T10:45:18;102263.94;;;24.35;59.13
54022;BME280;39936;51.058;17.220;2023-09-08T10:49:04;102263.38;;;24.26;59.50
54022;BME280;39936;51.058;17.220;2023-09-08T10:52:42;102254.95;;;24.42;62.72
54022;BME280;39936;51.058;17.220;2023-09-08T10:55:57;102251.56;;;24.56;59.77
54022;BME280;39936;51.058;17.220;2023-09-08T10:59:18;102229.70;;;24.71;56.49
54022;BME280;39936;51.058;17.220;2023-09-08T11:07:33;102243.37;;;25.10;53.40
54022;BME280;39936;51.058;17.220;2023-09-08T11:11:58;102239.18;;;25.08;55.41
54022;BME280;39936;51.058;17.220;2023-09-08T11:15:43;102231.63;;;25.14;51.60
54022;BME280;39936;51.058;17.220;2023-09-08T11:19:11;102203.13;;;25.28;55.91
54022;BME280;39936;51.058;17.220;2023-09-08T11:23:01;102223.57;;;25.68;54.52
54022;BME280;39936;51.058;17.220;2023-09-08T11:26:25;102214.22;;;25.73;51.83
54022;BME280;39936;51.058;17.220;2023-09-08T11:30:38;102219.38;;;25.80;49.47
54022;BME280;39936;51.058;17.220;2023-09-08T11:34:29;102214.52;;;25.86;50.15
54022;BME280;39936;51.058;17.220;2023-09-08T11:38:36;102218.27;;;26.10;50.20
54022;BME280;39936;51.058;17.220;2023-09-08T11:41:55;102196.56;;;26.03;50.21
54022;BME280;39936;51.058;17.220;2023-09-08T11:45:19;102215.70;;;26.21;48.16
54022;BME280;39936;51.058;17.220;2023-09-08T11:48:49;102211.12;;;26.31;49.10
54022;BME280;39936;51.058;17.220;2023-09-08T11:52:31;102187.52;;;26.04;48.33
54022;BME280;39936;51.058;17.220;2023-09-08T11:55:57;102191.27;;;26.23;49.84
54022;BME280;39936;51.058;17.220;2023-09-08T11:59:13;102199.10;;;26.47;48.67
54022;BME280;39936;51.058;17.220;2023-09-08T12:02:53;102197.84;;;26.62;48.15
54022;BME280;39936;51.058;17.220;2023-09-08T12:06:06;102192.91;;;26.77;47.37
54022;BME280;39936;51.058;17.220;2023-09-08T12:09:26;102197.23;;;26.66;47.70
54022;BME280;39936;51.058;17.220;2023-09-08T12:13:04;102187.14;;;26.60;47.58
54022;BME280;39936;51.058;17.220;2023-09-08T12:20:28;102181.95;;;26.62;46.60
54022;BME280;39936;51.058;17.220;2023-09-08T12:23:50;102163.24;;;26.70;48.64
54022;BME280;39936;51.058;17.220;2023-09-08T12:27:05;102183.36;;;26.79;48.93
54022;BME280;39936;51.058;17.220;2023-09-08T12:30:33;102177.35;;;26.89;47.51
54022;BME280;39936;51.058;17.220;2023-09-08T12:34:04;102147.12;;;26.79;48.27
54022;BME280;39936;51.058;17.220;2023-09-08T12:38:06;102169.16;;;27.00;48.18
54022;BME280;39936;51.058;17.220;2023-09-08T12:41:21;102163.55;;;27.06;45.58
54022;BME280;39936;51.058;17.220;2023-09-08T12:45:23;102170.29;;;27.06;45.04
54022;BME280;39936;51.058;17.220;2023-09-08T12:49:14;102152.42;;;26.86;49.03
54022;BME280;39936;51.058;17.220;2023-09-08T12:52:26;102160.00;;;27.04;46.96
54022;BME280;39936;51.058;17.220;2023-09-08T12:55:56;102156.95;;;27.02;46.92
54022;BME280;39936;51.058;17.220;2023-09-08T12:59:43;102152.36;;;27.18;47.38
54022;BME280;39936;51.058;17.220;2023-09-08T13:03:14;102138.28;;;27.12;47.81
54022;BME280;39936;51.058;17.220;2023-09-08T13:06:41;102151.48;;;27.24;46.06
54022;BME280;39936;51.058;17.220;2023-09-08T13:09:54;102135.92;;;27.24;46.48
54022;BME280;39936;51.058;17.220;2023-09-08T13:13:25;102144.51;;;27.41;46.43
54022;BME280;39936;51.058;17.220;2023-09-08T13:16:49;102145.17;;;27.55;46.77
54022;BME280;39936;51.058;17.220;2023-09-08T13:20:53;102144.93;;;27.40;46.72
54022;BME280;39936;51.058;17.220;2023-09-08T13:24:08;102140.69;;;27.44;46.22
54022;BME280;39936;51.058;17.220;2023-09-08T13:27:37;102112.82;;;27.46;46.00
54022;BME280;39936;51.058;17.220;2023-09-08T13:34:52;102129.83;;;27.66;45.72
54022;BME280;39936;51.058;17.220;2023-09-08T13:38:48;102124.86;;;27.60;44.36
54022;BME280;39936;51.058;17.220;2023-09-08T13:42:50;102121.07;;;27.56;46.15
54022;BME280;39936;51.058;17.220;2023-09-08T13:46:30;102090.54;;;27.45;45.38
54022;BME280;39936;51.058;17.220;2023-09-08T13:49:56;102093.87;;;27.66;46.49
54022;BME280;39936;51.058;17.220;2023-09-08T13:53:39;102101.95;;;27.91;45.67
54022;BME280;39936;51.058;17.220;2023-09-08T13:57:19;102097.07;;;28.03;43.85
54022;BME280;39936;51.058;17.220;2023-09-08T14:00:48;102093.03;;;28.11;43.65
54022;BME280;39936;51.058;17.220;2023-09-08T14:04:14;102088.80;;;27.93;42.51
54022;BME280;39936;51.058;17.220;2023-09-08T14:07:47;102080.95;;;27.75;44.08
54022;BME280;39936;51.058;17.220;2023-09-08T14:11:55;102065.73;;;27.76;44.76
54022;BME280;39936;51.058;17.220;2023-09-08T14:15:10;102082.08;;;27.98;44.18
54022;BME280;39936;51.058;17.220;2023-09-08T14:18:31;102065.99;;;27.77;44.37
54022;BME280;39936;51.058;17.220;2023-09-08T14:21:55;102080.64;;;27.94;44.76
54022;BME280;39936;51.058;17.220;2023-09-08T14:25:51;102077.43;;;27.61;44.30
54022;BME280;39936;51.058;17.220;2023-09-08T14:29:42;102077.63;;;27.72;45.28
54022;BME280;39936;51.058;17.220;2023-09-08T14:33:13;102061.30;;;27.90;45.00
54022;BME280;39936;51.058;17.220;2023-09-08T14:36:46;102073.01;;;28.15;45.13
54022;BME280;39936;51.058;17.220;2023-09-08T14:40:26;102068.84;;;28.22;43.78
54022;BME280;39936;51.058;17.220;2023-09-08T14:43:54;102071.47;;;28.12;43.99
54022;BME280;39936;51.058;17.220;2023-09-08T14:47:12;102073.00;;;28.05;44.93
54022;BME280;39936;51.058;17.220;2023-09-08T14:50:30;102068.24;;;28.14;45.57
54022;BME280;39936;51.058;17.220;2023-09-08T14:53:53;102065.52;;;28.20;43.26
54022;BME280;39936;51.058;17.220;2023-09-08T14:57:22;102065.13;;;28.07;43.81
54022;BME280;39936;51.058;17.220;2023-09-08T15:00:44;102063.70;;;27.86;45.24
54022;BME280;39936;51.058;17.220;2023-09-08T15:04:13;102062.16;;;27.82;45.33
54022;BME280;39936;51.058;17.220;2023-09-08T15:07:42;102060.67;;;27.80;46.05
54022;BME280;39936;51.058;17.220;2023-09-08T15:11:00;102057.95;;;27.82;46.17
54022;BME280;39936;51.058;17.220;2023-09-08T15:14:29;102031.67;;;27.66;46.70
54022;BME280;39936;51.058;17.220;2023-09-08T15:17:46;102053.97;;;27.90;46.12
54022;BME280;39936;51.058;17.220;2023-09-08T15:21:09;102055.16;;;27.75;45.67
54022;BME280;39936;51.058;17.220;2023-09-08T15:24:27;102055.02;;;27.59;46.05
54022;BME280;39936;51.058;17.220;2023-09-08T15:27:54;102032.64;;;27.30;46.79
54022;BME280;39936;51.058;17.220;2023-09-08T15:31:33;102055.19;;;27.40;47.06
54022;BME280;39936;51.058;17.220;2023-09-08T15:35:07;102059.82;;;27.39;46.80
54022;BME280;39936;51.058;17.220;2023-09-08T15:38:39;102056.28;;;27.36;46.74
54022;BME280;39936;51.058;17.220;2023-09-08T15:41:57;102037.92;;;27.17;46.16
54022;BME280;39936;51.058;17.220;2023-09-08T15:45:19;102054.42;;;27.26;46.64
54022;BME280;39936;51.058;17.220;2023-09-08T15:48:36;102027.82;;;27.06;46.28
54022;BME280;39936;51.058;17.220;2023-09-08T15:52:14;102053.84;;;27.14;46.18
54022;BME280;39936;51.058;17.220;2023-09-08T15:55:32;102049.16;;;27.07;46.67
54022;BME280;39936;51.058;17.220;2023-09-08T15:58:52;102048.32;;;27.07;47.45
54022;BME280;39936;51.058;17.220;2023-09-08T16:02:49;102043.52;;;26.99;47.11
54022;BME280;39936;51.058;17.220;2023-09-08T16:06:39;102044.26;;;26.92;46.24
54022;BME280;39936;51.058;17.220;2023-09-08T16:09:54;102013.24;;;26.69;46.36
54022;BME280;39936;51.058;17.220;2023-09-08T16:13:12;102041.77;;;26.77;46.28
54022;BME280;39936;51.058;17.220;2023-09-08T16:16:35;102038.63;;;26.67;46.15
54022;BME280;39936;51.058;17.220;2023-09-08T16:20:17;102037.42;;;26.54;46.76
54022;BME280;39936;51.058;17.220;2023-09-08T16:23:35;102035.11;;;26.40;47.61
54022;BME280;39936;51.058;17.220;2023-09-08T16:26:47;102035.41;;;26.27;47.92
54022;BME280;39936;51.058;17.220;2023-09-08T16:30:04;102015.99;;;25.98;48.56
54022;BME280;39936;51.058;17.220;2023-09-08T16:33:31;102037.12;;;25.96;48.81
54022;BME280;39936;51.058;17.220;2023-09-08T16:37:04;102041.86;;;25.78;49.85
54022;BME280;39936;51.058;17.220;2023-09-08T16:40:34;102041.94;;;25.58;49.81
54022;BME280;39936;51.058;17.220;2023-09-08T16:44:06;102043.13;;;25.40;49.91
54022;BME280;39936;51.058;17.220;2023-09-08T16:47:34;102041.48;;;25.24;50.28
54022;BME280;39936;51.058;17.220;2023-09-08T16:51:01;102047.12;;;25.04;51.74
54022;BME280;39936;51.058;17.220;2023-09-08T16:54:46;102040.94;;;24.79;52.60
54022;BME280;39936;51.058;17.220;2023-09-08T16:58:11;102046.14;;;24.67;52.95
54022;BME280;39936;51.058;17.220;2023-09-08T17:02:03;102046.22;;;24.60;54.34
54022;BME280;39936;51.058;17.220;2023-09-08T17:05:19;102045.52;;;24.20;55.30
54022;BME280;39936;51.058;17.220;2023-09-08T17:08:30;102019.91;;;23.85;55.14
54022;BME280;39936;51.058;17.220;2023-09-08T17:12:01;102045.25;;;23.84;55.24
54022;BME280;39936;51.058;17.220;2023-09-08T17:15:49;102049.59;;;23.55;56.97
54022;BME280;39936;51.058;17.220;2023-09-08T17:19:13;102051.35;;;23.17;57.96
54022;BME280;39936;51.058;17.220;2023-09-08T17:22:48;102056.98;;;22.88;59.20
54022;BME280;39936;51.058;17.220;2023-09-08T17:26:39;102060.14;;;22.52;60.20
54022;BME280;39936;51.058;17.220;2023-09-08T17:30:30;102057.88;;;22.15;61.32
54022;BME280;39936;51.058;17.220;2023-09-08T17:33:45;102061.60;;;21.76;63.44
54022;BME280;39936;51.058;17.220;2023-09-08T17:37:35;102055.19;;;21.30;64.90
54022;BME280;39936;51.058;17.220;2023-09-08T17:40:50;102074.77;;;20.99;65.54
54022;BME280;39936;51.058;17.220;2023-09-08T17:44:18;102062.42;;;20.58;66.56
54022;BME280;39936;51.058;17.220;2023-09-08T17:51:27;102082.74;;;20.11;67.56
54022;BME280;39936;51.058;17.220;2023-09-08T17:54:45;102074.92;;;19.84;68.65
54022;BME280;39936;51.058;17.220;2023-09-08T17:58:14;102077.72;;;19.62;68.93
54022;BME280;39936;51.058;17.220;2023-09-08T18:01:30;102085.27;;;19.39;70.15
54022;BME280;39936;51.058;17.220;2023-09-08T18:05:02;102071.55;;;19.08;73.57
54022;BME280;39936;51.058;17.220;2023-09-08T18:08:31;102095.52;;;18.98;78.87
54022;BME280;39936;51.058;17.220;2023-09-08T18:15:46;102094.00;;;18.74;78.32
54022;BME280;39936;51.058;17.220;2023-09-08T18:19:02;102069.84;;;18.43;77.87
54022;BME280;39936;51.058;17.220;2023-09-08T18:23:04;102093.90;;;18.40;77.83
54022;BME280;39936;51.058;17.220;2023-09-08T18:26:21;102100.82;;;18.21;78.15
54022;BME280;39936;51.058;17.220;2023-09-08T18:29:46;102099.43;;;17.98;78.15
54022;BME280;39936;51.058;17.220;2023-09-08T18:33:19;102105.55;;;17.84;79.08
54022;BME280;39936;51.058;17.220;2023-09-08T18:36:52;102106.59;;;17.66;79.99
54022;BME280;39936;51.058;17.220;2023-09-08T18:40:46;102113.20;;;17.52;82.23
54022;BME280;39936;51.058;17.220;2023-09-08T18:44:04;102117.00;;;17.35;84.15
54022;BME280;39936;51.058;17.220;2023-09-08T18:47:35;102117.90;;;17.20;92.46
54022;BME280;39936;51.058;17.220;2023-09-08T18:51:26;102118.60;;;17.04;98.31
54022;BME280;39936;51.058;17.220;2023-09-08T19:03:04;102118.63;;;16.76;98.29
54022;BME280;39936;51.058;17.220;2023-09-08T19:06:21;102125.68;;;16.67;97.65
54022;BME280;39936;51.058;17.220;2023-09-08T19:09:50;102127.05;;;16.60;96.84
54022;BME280;39936;51.058;17.220;2023-09-08T19:13:44;102126.30;;;16.46;96.29
54022;BME280;39936;51.058;17.220;2023-09-08T19:17:01;102125.96;;;16.33;96.26